Terminal Aerodrome Forecast
Issued by NWS Missoula, MT

Home | Current Version | Previous Version | Text Only | Print | Product List | Glossary On
Versions: 1 2 3 4 5 6 7 8 9 10 11 12 13 14 15 16 17 18 19
543
FTUS45 KMSO 201737
TAFGPI
TAF
KGPI 201737Z 2018/2118 VRB03KT 3SM BR VCFG BKN080
     FM201900 19003KT P6SM BKN080
     FM210500 00000KT 4SM BR VCFG SCT005
     FM211200 VRB03KT 2SM BR VCFG SCT005 OVC010=

USA.gov is the U.S. government's official web portal to all federal, state and local government web resources and services.